10:42
Airports
History
Links
Donate
Help keep this website running!
PayPal
Bitcoin
This page is community maintained. The information is intended for PC simulator navigation or reference.
Always use approved charts for navigation.
EGKL
Deanland
Deanland (EGKL)
England, United Kingdom
4
Lat/Lng:50° 52' 54.21" N / 0° 9' 21.24" E
50.881724 / 0.155899
Elevation:60'ft / 18mMSL
ID / ICAO:EGKL
Runways:1
Longest:06-24
Grass 451m / 1,478ft
Nearby Weather10:20 GMT 2017-12-18
Nearby weather at EGKA, Shoreham located 19.9 nautical miles from EGKL
Altimeter: 30.39
Visibility: 6.2 statute miles
Wind: 8 knots (from 350°)
Temp: 4°c / 39°f
Humidity: 86.8%

METAR: EGKA 181020Z 35008KT CAVOK 04/02 Q1029

(Powered by phpweather)
Nearby VORs <50NM
Nearby NDBs
Runway 06 / 24
Dimensions:450.6 x 25m 1478' x 82'ft
Surface:Grass
Runway 06 [A]Runway 24 [B]
Heading:057°TH 237°TH
Lat:
Lng:
50° 52' 50.31"N
0° 9' 11.62"E
50° 52' 58.1"N
0° 9' 30.86"E
User Notes and Comments
50° 52' 54.21" N / 0° 9' 21.24" E
Distance To
Airport ID:
Nearby Airports
(C) Shoreham 19.9 NM
EGKA ( WX ) W 260°
(C) London Gatwick 23.8 NM
EGKK ( WX ) NW 320°
(C) Redhill 26.4 NM
EGKR NNW 330°
(C) Lashenden Headcorn 28.5 NM
EGKH NE 48°
(U) RAF Kenley 31.3 NM
EGKN NNW 339°
(C) Biggin Hill 31.4 NM
EGKB ( WX ) N 350°
(C) Dunsfold 34.2 NM
EGTD WNW 298°
VFR Chart
Flight Planning at SkyVector.com